createdAt,value
2022-07-30T00:01:35.838Z,6.05
2022-07-30T00:04:04.943Z,6.90
2022-07-30T00:06:33.725Z,6.47
2022-07-30T00:09:01.981Z,6.65
2022-07-30T00:11:31.770Z,6.22
2022-07-30T00:14:00.112Z,7.00
2022-07-30T00:16:29.087Z,6.70
2022-07-30T00:18:57.412Z,6.53
2022-07-30T00:21:38.578Z,6.43
2022-07-30T00:24:08.764Z,6.47
2022-07-30T00:26:38.672Z,6.68
2022-07-30T00:29:07.616Z,6.60
2022-07-30T00:31:35.896Z,5.85
2022-07-30T00:34:04.203Z,6.47
2022-07-30T00:36:32.816Z,6.35
2022-07-30T00:39:01.089Z,6.03
2022-07-30T00:41:30.353Z,6.50
2022-07-30T00:44:00.046Z,6.80
2022-07-30T00:46:28.364Z,6.80
2022-07-30T00:48:56.701Z,6.43
2022-07-30T00:51:24.994Z,7.38
2022-07-30T00:53:53.878Z,6.60
2022-07-30T00:56:22.158Z,6.13
2022-07-30T00:58:50.504Z,7.28
2022-07-30T01:01:21.105Z,7.07
2022-07-30T01:03:49.489Z,6.82
2022-07-30T01:06:17.849Z,6.65
2022-07-30T01:08:46.127Z,6.97
2022-07-30T01:11:14.503Z,6.88
2022-07-30T01:13:44.324Z,6.75
2022-07-30T01:16:13.111Z,7.50
2022-07-30T01:19:01.442Z,7.35
2022-07-30T01:21:36.278Z,7.95
2022-07-30T01:24:13.425Z,7.90
2022-07-30T01:26:43.725Z,7.22
2022-07-30T01:29:14.486Z,7.40
2022-07-30T01:31:44.959Z,8.07
2022-07-30T01:34:15.928Z,8.30
2022-07-30T01:36:47.602Z,7.80
2022-07-30T01:39:16.480Z,7.53
2022-07-30T01:41:47.883Z,7.95
2022-07-30T01:44:23.942Z,7.70
2022-07-30T01:46:54.502Z,7.93
2022-07-30T01:49:24.195Z,8.05
2022-07-30T01:51:54.871Z,7.55
2022-07-30T01:54:28.604Z,7.25
2022-07-30T01:57:02.064Z,7.90
2022-07-30T01:59:33.040Z,8.00
2022-07-30T02:02:01.741Z,7.57
2022-07-30T02:04:30.954Z,7.70
2022-07-30T02:07:04.554Z,7.72
2022-07-30T02:09:45.588Z,7.68
2022-07-30T02:12:31.612Z,7.43
2022-07-30T02:15:15.483Z,7.13
2022-07-30T02:17:47.477Z,7.80
2022-07-30T02:20:18.684Z,8.20
2022-07-30T02:22:48.397Z,7.45
2022-07-30T02:25:22.379Z,7.05
2022-07-30T02:27:57.156Z,7.40
2022-07-30T02:30:28.818Z,7.07
2022-07-30T02:33:03.333Z,7.63
2022-07-30T02:35:33.073Z,8.05
2022-07-30T02:38:03.674Z,7.95
2022-07-30T02:40:32.944Z,7.07
2022-07-30T02:43:03.843Z,7.35
2022-07-30T02:45:32.547Z,7.68
2022-07-30T02:48:07.068Z,8.10
2022-07-30T02:50:36.230Z,8.23
2022-07-30T02:53:08.491Z,8.77
2022-07-30T02:55:39.312Z,8.57
2022-07-30T02:58:10.174Z,8.80
2022-07-30T03:00:39.887Z,9.02
2022-07-30T03:03:09.817Z,8.75
2022-07-30T03:05:40.730Z,9.10
2022-07-30T03:08:09.942Z,9.95
2022-07-30T03:10:39.662Z,9.75
2022-07-30T03:13:11.694Z,9.73
2022-07-30T03:15:45.346Z,10.15
2022-07-30T03:18:15.636Z,9.75
2022-07-30T03:20:47.120Z,9.90
2022-07-30T03:23:20.003Z,9.27
2022-07-30T03:25:52.476Z,9.85
2022-07-30T03:28:25.238Z,10.40
2022-07-30T03:30:54.700Z,10.82
2022-07-30T03:33:24.332Z,9.82
2022-07-30T03:36:08.173Z,9.65
2022-07-30T03:38:39.339Z,10.73
2022-07-30T03:41:09.382Z,11.25
2022-07-30T03:43:40.615Z,10.30
2022-07-30T03:46:11.795Z,11.20
2022-07-30T03:48:43.936Z,11.48
2022-07-30T03:51:13.097Z,11.00
2022-07-30T03:53:43.708Z,11.30
2022-07-30T03:56:30.286Z,11.82
2022-07-30T03:59:29.424Z,10.93
2022-07-30T04:02:03.949Z,11.07
2022-07-30T04:05:09.008Z,11.13
2022-07-30T04:07:41.359Z,12.10
2022-07-30T04:10:14.704Z,11.63
2022-07-30T04:13:01.362Z,11.60
2022-07-30T04:16:40.438Z,12.02
2022-07-30T04:18:36.071Z,11.82
2022-07-30T04:21:06.940Z,12.32
2022-07-30T04:24:03.799Z,11.90
2022-07-30T04:26:36.514Z,12.20
2022-07-30T04:29:07.832Z,13.13
2022-07-30T04:31:39.855Z,12.05
2022-07-30T04:34:28.052Z,12.98
2022-07-30T04:36:56.444Z,12.93
2022-07-30T04:39:24.893Z,12.63
2022-07-30T04:41:53.287Z,12.27
2022-07-30T04:44:29.141Z,11.88
2022-07-30T04:47:22.089Z,12.10
2022-07-30T04:50:14.656Z,10.70
2022-07-30T04:52:44.939Z,12.10
2022-07-30T04:55:17.945Z,12.10
2022-07-30T04:57:50.475Z,11.57
2022-07-30T05:00:19.344Z,11.50
2022-07-30T05:02:51.819Z,11.60
2022-07-30T05:05:23.935Z,12.43
2022-07-30T05:07:53.572Z,11.23
2022-07-30T05:10:22.839Z,11.52
2022-07-30T05:12:51.274Z,11.00
2022-07-30T05:15:22.144Z,10.50
2022-07-30T05:18:07.677Z,11.43
2022-07-30T05:20:40.420Z,11.75
2022-07-30T05:23:15.249Z,10.93
2022-07-30T05:25:49.019Z,11.15
2022-07-30T05:28:26.723Z,11.63
2022-07-30T05:30:57.289Z,10.73
2022-07-30T05:33:41.053Z,11.30
2022-07-30T05:36:12.472Z,11.10
2022-07-30T05:38:41.897Z,10.40
2022-07-30T05:41:32.103Z,10.73
2022-07-30T05:44:11.708Z,10.93
2022-07-30T05:46:42.087Z,10.82
2022-07-30T05:49:12.457Z,11.13
2022-07-30T05:51:41.463Z,10.82
2022-07-30T05:54:10.409Z,11.32
2022-07-30T05:57:01.723Z,11.57
2022-07-30T05:59:35.576Z,11.13
2022-07-30T06:02:09.969Z,11.30
2022-07-30T06:04:56.634Z,12.55
2022-07-30T06:07:25.469Z,11.70
2022-07-30T06:10:02.567Z,12.35
2022-07-30T06:12:31.725Z,11.90
2022-07-30T06:15:00.533Z,12.15
2022-07-30T06:17:42.048Z,12.40
2022-07-30T06:20:39.958Z,11.90
2022-07-30T06:23:16.173Z,11.80
2022-07-30T06:26:16.662Z,11.70
2022-07-30T06:28:45.529Z,11.77
2022-07-30T06:31:21.725Z,12.13
2022-07-30T06:33:50.148Z,10.23
2022-07-30T06:36:19.892Z,10.90
2022-07-30T06:38:58.972Z,10.32
2022-07-30T06:41:41.439Z,10.07
2022-07-30T06:44:15.213Z,10.20
2022-07-30T06:47:07.489Z,8.77
2022-07-30T06:49:38.704Z,9.02
2022-07-30T06:52:15.613Z,7.65
2022-07-30T06:54:49.874Z,8.13
2022-07-30T06:57:27.971Z,8.07
2022-07-30T06:59:59.456Z,8.13
2022-07-30T07:02:37.231Z,6.97
2022-07-30T07:05:12.185Z,5.97
2022-07-30T07:07:57.875Z,5.93
2022-07-30T07:10:30.361Z,5.65
2022-07-30T07:13:11.647Z,6.32
2022-07-30T07:15:40.367Z,6.82
2022-07-30T07:18:13.084Z,6.32
2022-07-30T07:20:46.700Z,5.50
2022-07-30T07:23:19.745Z,5.07
2022-07-30T07:25:49.431Z,6.00
2022-07-30T07:28:18.195Z,5.68
2022-07-30T07:30:46.838Z,5.65
2022-07-30T07:33:16.447Z,5.20
2022-07-30T07:35:48.663Z,6.97
2022-07-30T07:38:25.072Z,5.70
2022-07-30T07:40:55.434Z,5.35
2022-07-30T07:43:25.265Z,4.82
2022-07-30T07:45:57.789Z,4.05
2022-07-30T07:48:29.256Z,2.75
2022-07-30T07:51:09.608Z,3.40
2022-07-30T07:53:40.173Z,3.50
2022-07-30T07:56:09.051Z,3.40
2022-07-30T07:58:38.289Z,3.38
2022-07-30T08:01:10.434Z,2.67
2022-07-30T08:03:58.668Z,2.92
2022-07-30T08:06:45.606Z,2.92
2022-07-30T08:09:40.913Z,2.30
2022-07-30T08:12:39.119Z,2.50
2022-07-30T08:15:25.896Z,2.40
2022-07-30T08:17:54.731Z,2.88
2022-07-30T08:20:58.523Z,2.47
2022-07-30T08:23:32.648Z,2.22
2022-07-30T08:26:02.813Z,2.30
2022-07-30T08:28:35.903Z,1.98
2022-07-30T08:31:06.095Z,1.70
2022-07-30T08:33:34.755Z,1.73
2022-07-30T08:36:09.655Z,2.25
2022-07-30T08:38:39.524Z,2.70
2022-07-30T08:41:10.819Z,2.03
2022-07-30T08:43:39.470Z,1.90
2022-07-30T08:46:12.084Z,1.90
2022-07-30T08:51:19.064Z,1.80
2022-07-30T08:54:16.305Z,1.90
2022-07-30T08:56:49.535Z,1.85
2022-07-30T08:59:18.916Z,1.60
2022-07-30T09:01:47.205Z,1.92
2022-07-30T09:04:15.529Z,1.45
2022-07-30T09:06:43.848Z,1.83
2022-07-30T09:09:12.359Z,1.77
2022-07-30T09:11:42.484Z,1.50
2022-07-30T09:14:14.216Z,1.60
2022-07-30T09:16:45.565Z,1.58
2022-07-30T09:19:16.599Z,2.08
2022-07-30T09:21:56.998Z,1.70
2022-07-30T09:24:43.101Z,1.90
2022-07-30T09:27:47.910Z,1.70
2022-07-30T09:30:56.928Z,1.75
2022-07-30T09:33:47.332Z,1.80
2022-07-30T09:36:38.351Z,1.55
2022-07-30T09:39:59.286Z,1.58
2022-07-30T09:43:04.306Z,1.60
2022-07-30T09:45:34.782Z,1.95
2022-07-30T09:48:22.322Z,1.60
2022-07-30T09:50:51.573Z,1.92
2022-07-30T09:53:22.446Z,1.73
2022-07-30T09:55:52.325Z,2.00
2022-07-30T09:58:27.062Z,1.70
2022-07-30T10:00:59.982Z,1.95
2022-07-30T10:03:49.738Z,1.77
2022-07-30T10:06:34.580Z,1.85
2022-07-30T10:09:14.365Z,1.70
2022-07-30T10:11:48.525Z,1.60
2022-07-30T10:14:18.131Z,1.70
2022-07-30T10:17:00.575Z,2.22
2022-07-30T10:19:39.944Z,1.92
2022-07-30T10:22:29.422Z,1.80
2022-07-30T10:25:20.854Z,2.05
2022-07-30T10:28:10.862Z,1.67
2022-07-30T10:30:39.371Z,2.40
2022-07-30T10:33:11.288Z,2.50
2022-07-30T10:35:59.970Z,1.80
2022-07-30T10:38:33.636Z,2.15
2022-07-30T10:41:09.160Z,1.48
2022-07-30T10:44:04.476Z,2.40
2022-07-30T10:46:45.466Z,3.22
2022-07-30T10:49:18.708Z,2.42
2022-07-30T10:51:50.574Z,2.53
2022-07-30T10:54:41.414Z,2.00
2022-07-30T10:57:15.288Z,2.90
2022-07-30T11:00:15.437Z,2.53
2022-07-30T11:03:15.014Z,2.53
2022-07-30T11:05:46.008Z,2.50
2022-07-30T11:08:42.777Z,2.75
2022-07-30T11:12:01.161Z,2.60
2022-07-30T11:14:58.431Z,2.50
2022-07-30T11:18:00.078Z,2.47
2022-07-30T11:20:29.070Z,2.70
2022-07-30T11:23:22.064Z,3.20
2022-07-30T11:25:54.710Z,2.95
2022-07-30T11:28:41.259Z,2.95
2022-07-30T11:31:55.086Z,3.15
2022-07-30T11:34:31.210Z,2.90
2022-07-30T11:37:18.270Z,3.33
2022-07-30T11:40:13.107Z,3.10
2022-07-30T11:42:43.719Z,3.50
2022-07-30T11:45:29.721Z,3.13
2022-07-30T11:48:00.290Z,3.10
2022-07-30T11:50:31.920Z,2.55
2022-07-30T11:53:03.669Z,2.88
2022-07-30T11:55:34.967Z,2.20
2022-07-30T11:58:06.917Z,2.33
2022-07-30T12:00:37.829Z,2.50
2022-07-30T12:03:11.585Z,2.30
2022-07-30T12:05:40.877Z,2.15
2022-07-30T12:08:10.341Z,2.45
2022-07-30T12:11:00.228Z,2.47
2022-07-30T12:13:42.868Z,2.20
2022-07-30T12:16:17.582Z,2.10
2022-07-30T12:18:47.706Z,1.90
2022-07-30T12:21:16.939Z,2.55
2022-07-30T12:23:55.962Z,2.10
2022-07-30T12:26:26.655Z,2.38
2022-07-30T12:28:57.988Z,2.20
2022-07-30T12:31:26.971Z,2.60
2022-07-30T12:33:58.190Z,2.08
2022-07-30T12:36:31.062Z,2.38
2022-07-30T12:39:00.212Z,2.10
2022-07-30T12:41:45.313Z,1.80
2022-07-30T12:44:40.122Z,1.90
2022-07-30T12:47:20.597Z,2.20
2022-07-30T12:49:50.553Z,2.30
2022-07-30T12:52:28.507Z,2.10
2022-07-30T12:55:02.388Z,2.00
2022-07-30T12:57:52.917Z,1.90
2022-07-30T13:00:23.195Z,1.88
2022-07-30T13:02:51.533Z,1.55
2022-07-30T13:05:20.195Z,1.40
2022-07-30T13:07:58.663Z,1.60
2022-07-30T13:10:31.202Z,1.80
2022-07-30T13:13:00.094Z,1.50
2022-07-30T13:15:29.911Z,1.70
2022-07-30T13:17:58.242Z,2.15
2022-07-30T13:20:26.665Z,1.58
2022-07-30T13:22:58.901Z,1.88
2022-07-30T13:25:38.824Z,1.67
2022-07-30T13:28:09.822Z,1.42
2022-07-30T13:30:39.557Z,1.40
2022-07-30T13:33:07.817Z,1.20
2022-07-30T13:35:36.403Z,1.40
2022-07-30T13:38:06.177Z,1.20
2022-07-30T13:40:35.432Z,1.48
2022-07-30T13:43:04.832Z,1.20
2022-07-30T13:45:33.322Z,1.38
2022-07-30T13:48:03.049Z,1.58
2022-07-30T13:50:31.389Z,1.48
2022-07-30T13:53:02.592Z,1.27
2022-07-30T13:55:31.225Z,1.42
2022-07-30T13:57:59.894Z,1.15
2022-07-30T14:00:32.508Z,1.20
2022-07-30T14:03:03.645Z,1.50
2022-07-30T14:05:33.228Z,1.55
2022-07-30T14:08:01.805Z,1.10
2022-07-30T14:10:30.387Z,1.30
2022-07-30T14:13:00.029Z,1.40
2022-07-30T14:15:31.850Z,1.20
2022-07-30T14:18:02.181Z,1.40
2022-07-30T14:20:30.851Z,1.20
2022-07-30T14:22:59.321Z,1.23
2022-07-30T14:25:27.820Z,1.55
2022-07-30T14:27:56.179Z,1.17
2022-07-30T14:30:25.143Z,1.35
2022-07-30T14:32:59.311Z,1.48
2022-07-30T14:35:31.532Z,1.10
2022-07-30T14:38:00.167Z,1.45
2022-07-30T14:40:28.692Z,1.02
2022-07-30T14:42:57.247Z,1.23
2022-07-30T14:45:26.867Z,1.60
2022-07-30T14:47:57.451Z,1.60
2022-07-30T14:50:25.782Z,1.50
2022-07-30T14:52:55.452Z,1.40
2022-07-30T14:55:23.957Z,1.20
2022-07-30T14:57:52.271Z,1.45
2022-07-30T15:00:21.321Z,1.42
2022-07-30T15:02:52.683Z,1.50
2022-07-30T15:05:21.009Z,1.35
2022-07-30T15:07:49.325Z,1.30
2022-07-30T15:10:19.383Z,1.52
2022-07-30T15:12:47.751Z,1.40
2022-07-30T15:15:16.478Z,1.13
2022-07-30T15:17:46.090Z,1.42
2022-07-30T15:20:14.424Z,1.10
2022-07-30T15:22:42.795Z,1.60
2022-07-30T15:25:11.055Z,1.77
2022-07-30T15:27:40.670Z,1.25
2022-07-30T15:30:09.670Z,1.20
2022-07-30T15:32:38.589Z,1.48
2022-07-30T15:35:13.565Z,1.20
2022-07-30T15:37:42.520Z,1.50
2022-07-30T15:40:11.489Z,1.85
2022-07-30T15:42:42.650Z,1.30
2022-07-30T15:45:17.663Z,1.40
2022-07-30T15:47:47.111Z,1.40
2022-07-30T15:50:16.806Z,1.20
2022-07-30T15:52:45.362Z,1.20
2022-07-30T15:55:13.930Z,1.30
2022-07-30T15:57:44.382Z,3.95
2022-07-30T16:00:13.746Z,39.38
2022-07-30T16:02:43.882Z,7.97
2022-07-30T16:05:14.252Z,4.25
2022-07-30T16:07:42.939Z,2.80
2022-07-30T16:10:11.602Z,2.08
2022-07-30T16:12:42.037Z,2.45
2022-07-30T16:15:12.249Z,1.33
2022-07-30T16:17:40.544Z,1.52
2022-07-30T16:20:10.882Z,1.42
2022-07-30T16:22:39.324Z,1.52
2022-07-30T16:25:08.934Z,1.00
2022-07-30T16:27:37.954Z,2.80
2022-07-30T16:30:07.156Z,1.35
2022-07-30T16:32:37.059Z,1.40
2022-07-30T16:35:09.281Z,1.10
2022-07-30T16:37:39.816Z,2.33
2022-07-30T16:40:08.985Z,1.55
2022-07-30T16:42:37.457Z,1.58
2022-07-30T16:45:06.365Z,1.83
2022-07-30T16:47:36.383Z,1.90
2022-07-30T16:50:05.241Z,2.20
2022-07-30T16:52:33.530Z,1.40
2022-07-30T16:55:01.902Z,1.17
2022-07-30T16:57:30.280Z,2.70
2022-07-30T16:59:58.774Z,1.77
2022-07-30T17:02:27.062Z,1.48
2022-07-30T17:04:56.696Z,1.58
2022-07-30T17:07:25.144Z,1.58
2022-07-30T17:09:53.972Z,1.30
2022-07-30T17:12:23.298Z,1.33
2022-07-30T17:14:53.947Z,1.30
2022-07-30T17:17:22.488Z,1.23
2022-07-30T17:19:50.916Z,1.30
2022-07-30T17:22:20.724Z,1.38
2022-07-30T17:24:48.985Z,1.17
2022-07-30T17:27:17.310Z,1.88
2022-07-30T17:29:50.198Z,1.42
2022-07-30T17:32:20.001Z,1.45
2022-07-30T17:34:48.865Z,1.52
2022-07-30T17:37:17.514Z,1.73
2022-07-30T17:40:22.979Z,1.63
2022-07-30T17:42:39.747Z,1.50
2022-07-30T17:45:09.097Z,1.55
2022-07-30T17:47:37.640Z,1.40
2022-07-30T17:50:06.884Z,1.50
2022-07-30T17:52:35.598Z,1.88
2022-07-30T17:55:05.842Z,1.90
2022-07-30T17:57:34.142Z,1.95
2022-07-30T18:00:03.742Z,1.45
2022-07-30T18:02:32.842Z,1.80
2022-07-30T18:05:01.849Z,1.80
2022-07-30T18:07:30.308Z,2.00
2022-07-30T18:09:58.863Z,1.70
2022-07-30T18:12:28.522Z,1.85
2022-07-30T18:14:57.439Z,1.90
2022-07-30T18:17:25.814Z,2.00
2022-07-30T18:19:54.878Z,1.95
2022-07-30T18:22:29.868Z,1.88
2022-07-30T18:25:00.837Z,2.20
2022-07-30T18:27:31.250Z,1.90
2022-07-30T18:29:59.662Z,1.98
2022-07-30T18:32:28.078Z,2.08
2022-07-30T18:34:56.445Z,2.00
2022-07-30T18:37:24.775Z,1.83
2022-07-30T18:40:10.871Z,1.83
2022-07-30T18:42:40.846Z,1.80
2022-07-30T18:45:13.907Z,1.73
2022-07-30T18:47:42.848Z,1.77
2022-07-30T18:50:11.869Z,2.03
2022-07-30T18:52:40.548Z,2.00
2022-07-30T18:55:11.392Z,2.40
2022-07-30T18:57:41.821Z,1.90
2022-07-30T19:00:31.107Z,2.00
2022-07-30T19:03:01.767Z,2.20
2022-07-30T19:05:30.276Z,2.20
2022-07-30T19:07:59.149Z,2.03
2022-07-30T19:10:28.134Z,2.30
2022-07-30T19:12:57.811Z,2.20
2022-07-30T19:15:26.380Z,2.70
2022-07-30T19:17:54.694Z,2.45
2022-07-30T19:20:23.645Z,1.98
2022-07-30T19:22:53.344Z,2.58
2022-07-30T19:25:21.840Z,2.50
2022-07-30T19:27:50.183Z,2.25
2022-07-30T19:30:19.937Z,2.67
2022-07-30T19:32:48.164Z,2.50
2022-07-30T19:35:16.531Z,2.63
2022-07-30T19:37:44.843Z,2.40
2022-07-30T19:40:14.234Z,2.38
2022-07-30T19:42:42.926Z,2.45
2022-07-30T19:45:13.335Z,2.83
2022-07-30T19:47:43.489Z,2.80
2022-07-30T19:50:15.459Z,2.60
2022-07-30T19:52:51.308Z,2.60
2022-07-30T19:55:30.974Z,2.67
2022-07-30T19:58:16.436Z,2.58
2022-07-30T20:00:49.587Z,2.67
2022-07-30T20:03:37.001Z,2.55
2022-07-30T20:06:07.326Z,2.72
2022-07-30T20:08:35.894Z,2.95
2022-07-30T20:11:06.020Z,2.67
2022-07-30T20:13:44.879Z,2.72
2022-07-30T20:16:15.174Z,2.97
2022-07-30T20:18:46.232Z,3.70
2022-07-30T20:21:16.190Z,3.00
2022-07-30T20:23:45.545Z,3.05
2022-07-30T20:26:15.963Z,3.33
2022-07-30T20:31:38.897Z,3.13
2022-07-30T20:34:16.261Z,3.63
2022-07-30T20:36:46.489Z,3.00
2022-07-30T20:39:18.359Z,2.63
2022-07-30T20:41:46.959Z,2.70
2022-07-30T20:44:23.568Z,3.00
2022-07-30T20:46:52.608Z,3.00
2022-07-30T20:49:35.312Z,2.88
2022-07-30T20:52:04.871Z,2.80
2022-07-30T20:54:33.972Z,2.67
2022-07-30T20:57:04.009Z,2.70
2022-07-30T20:59:35.673Z,2.70
2022-07-30T21:02:04.724Z,2.60
2022-07-30T21:04:36.382Z,2.47
2022-07-30T21:07:05.061Z,2.55
2022-07-30T21:09:49.917Z,2.60
2022-07-30T21:18:01.494Z,2.72
2022-07-30T21:20:32.636Z,3.50
2022-07-30T21:23:05.751Z,3.60
2022-07-30T21:26:00.736Z,3.47
2022-07-30T21:28:29.294Z,2.75
2022-07-30T21:30:57.753Z,3.58
2022-07-30T21:33:31.012Z,3.03
2022-07-30T21:36:01.281Z,4.10
2022-07-30T21:38:30.608Z,3.25
2022-07-30T21:41:00.294Z,3.10
2022-07-30T21:43:30.618Z,3.15
2022-07-30T21:46:03.610Z,3.25
2022-07-30T21:48:32.337Z,3.00
2022-07-30T21:51:02.214Z,3.28
2022-07-30T21:53:46.242Z,3.10
2022-07-30T21:56:16.361Z,3.00
2022-07-30T21:58:45.621Z,3.35
2022-07-30T22:01:21.826Z,3.20
2022-07-30T22:04:04.502Z,3.20
2022-07-30T22:06:41.259Z,3.03
2022-07-30T22:09:18.248Z,3.22
2022-07-30T22:11:54.824Z,2.70
2022-07-30T22:14:25.590Z,2.92
2022-07-30T22:16:54.633Z,2.95
2022-07-30T22:19:23.050Z,3.20
2022-07-30T22:21:52.954Z,3.40
2022-07-30T22:24:28.643Z,3.33
2022-07-30T22:27:00.973Z,3.28
2022-07-30T22:29:34.106Z,3.55
2022-07-30T22:32:06.236Z,3.58
2022-07-30T22:34:36.488Z,3.33
2022-07-30T22:37:09.272Z,3.38
2022-07-30T22:39:51.021Z,3.78
2022-07-30T22:42:24.386Z,3.97
2022-07-30T22:44:54.870Z,3.95
2022-07-30T22:47:50.826Z,4.03
2022-07-30T22:50:14.771Z,4.60
2022-07-30T22:53:23.391Z,4.50
2022-07-30T22:55:51.514Z,4.57
2022-07-30T23:01:11.759Z,5.22
2022-07-30T23:03:40.070Z,5.00
2022-07-30T23:06:14.860Z,4.97
2022-07-30T23:08:46.068Z,5.20
2022-07-30T23:11:14.348Z,5.60
2022-07-30T23:12:18.035Z,2.90
2022-07-30T23:12:31.101Z,3.08
2022-07-30T23:12:32.789Z,2.97
2022-07-30T23:12:34.383Z,4.78
2022-07-30T23:13:43.338Z,4.55
2022-07-30T23:16:11.783Z,5.10
2022-07-30T23:18:40.084Z,6.10
2022-07-30T23:21:08.376Z,6.30
2022-07-30T23:23:36.707Z,6.32
2022-07-30T23:26:08.454Z,6.00
2022-07-30T23:28:37.785Z,5.38
2022-07-30T23:31:06.351Z,5.32
2022-07-30T23:33:34.817Z,5.00
2022-07-30T23:36:06.206Z,4.75
2022-07-30T23:38:34.949Z,4.15
2022-07-30T23:41:04.212Z,4.00
2022-07-30T23:43:34.168Z,3.75
2022-07-30T23:46:02.862Z,3.92
2022-07-30T23:48:32.251Z,4.13
2022-07-30T23:51:00.617Z,3.97
2022-07-30T23:53:28.953Z,4.50
2022-07-30T23:55:57.608Z,3.92
2022-07-30T23:58:25.922Z,4.20
